Aérodrome :
LOGIN :

S'inscrire | Disclaimer

   EN    FR    IT 

 










Légende :    VFR   VFR Marginal   IFR   IFR Intensif   IFR Très Intensif
Visi : 
Plafond : 
>= 8 km
>= 3000ft
5 à 8 km
1000 à 3000 ft
1500m à 5 km
500 à 1000 ft
800 à 1500m
200 à 500 ft
< 800m
< 200 ft
Symboles :   Orages  Brouillard  Fortes neiges  Fortes précipitations  Vent > 20 kt
SIGMETs :   Divers  Orages  Givrage  Turbulence  Onde Orograph.  Cendres Volcan.






- Altitude de l'aérodrome : 584 ft


LFPV - Villacoublay Vélizy

DERNIER METAR :
  • 140030Z AUTO 17010KT 130V190 5000 RA BR BKN013 BKN020 OVC034 05/04 Q0994 TEMPO BKN005 BECMG 17015G25KT NSW

METARs EXPIRÉS :
  • 140000Z AUTO 16012KT 130V190 8000 RA BKN016 BKN027 BKN032 05/04 Q0994 TEMPO 3000 RA BKN005 BECMG 17015G25KT
  • 132330Z AUTO 16011KT 9999 -RA BKN016 BKN027 BKN035 06/03 Q0994 TEMPO 3000 RA BKN005 BECMG 17015G25KT
  • 132300Z AUTO 16010KT 130V190 9999 BKN016 BKN037 BKN084 06/03 Q0995 TEMPO 3000 RA BKN005 BECMG 17015G25KT
  • 132230Z AUTO 17014KT 140V200 9999 FEW015 BKN040 OVC130 06/03 Q0995 TEMPO 3000 RA BKN005 BECMG 17015G25KT
  • 132200Z AUTO 17013KT 130V190 9999 FEW016 BKN040 BKN130 06/04 Q0996 TEMPO 3000 RA BKN005 BECMG 17015G25KT

TAF TAF LFPV
Valide du 13 à 21h jusqu'au 14 à 21h UTC


132000Z 1321/1421 17010KT 9999 FEW030 BKN130 OVC150
BECMG 1321/1322 17015G25KT BKN010 OVC012
TEMPO 1322/1402 3000 RA BKN005
BECMG 1403/1405 SCT012
PROB30
TEMPO 1405/1410 BKN008
BECMG 1410/1412 SCT020



MET'MAP, la Météo Aéronautique d'un coup d'oeil ! - Copyright ORBIFLY Décembre 2007 - Disclaimer

ORBIFLY MET'MAP TEAM :

Programmation & Développement : Alexandra Zaïnal
Conception & Développement : Baudouin d'Aumeries
Co-Programmation & Développement : Marc-Olivier Méhu
Soutien technique & logistique : Manuel Goepfert

Contact : metmap@orbifly.com




SOURCES & CREDITS :

   NOAA